LECO

A Coruña Airport

Airport
ICAO code
LECO
IATA Code
LCG
Summary
ICAO Region
EUR
ICAO Territory
Location

Alvedro, Galicia

Serving
La Coruna
Elevation
326 ft
Coordinates
43° 18' 7" N , 8° 22' 38" W
KCC
Metar
Observation
LECO 071230Z VRB01KT CAVOK 15/11 Q1012 NOSIG
Station
La Coruna / Alvedro
Date/Time
2022-12-07 12:30:00
Wind speed
01 kts
Lowest cloud amount
clouds and visibility OK
Temperature
15°C
Dew point
11°C
Humidity
77%
QNH
1012 hPa
Weather condition
n/a

A Coruña Airport, formerly known as Alvedro Airport, is the airport serving the Galician city of A Coruña in northwestern Spain.

Climatology

humid oceanic climate with drier summers, (Köppen climate classification Cfb), heavily moderated by the Atlantic Ocean. Autumn and winter are often unsettled and unpredictable, with strong winds and abundant rainfall coming from Atlantic depressions, and it is often overcast.

Runways

Designator Length Width Surface Rops
4/22 1940 45 ASP Yes/Yes

Airport map

Aerial View

SKYbrary Partners:

Safety knowledge contributed by: